createdAt,value
2022-10-18T00:00:25.498Z,7.50
2022-10-18T00:02:53.340Z,8.15
2022-10-18T00:05:20.228Z,7.50
2022-10-18T00:07:47.073Z,7.57
2022-10-18T00:10:13.901Z,8.48
2022-10-18T00:12:40.769Z,7.32
2022-10-18T00:15:08.523Z,9.57
2022-10-18T00:17:41.222Z,7.72
2022-10-18T00:20:08.640Z,8.30
2022-10-18T00:22:40.565Z,7.55
2022-10-18T00:25:09.192Z,7.00
2022-10-18T00:27:36.706Z,7.65
2022-10-18T00:30:04.629Z,7.63
2022-10-18T00:32:31.861Z,8.88
2022-10-18T00:34:59.275Z,7.57
2022-10-18T00:37:28.252Z,7.65
2022-10-18T00:39:54.998Z,6.72
2022-10-18T00:42:25.247Z,7.75
2022-10-18T00:44:51.977Z,7.50
2022-10-18T00:47:19.889Z,7.78
2022-10-18T00:49:55.741Z,8.15
2022-10-18T00:52:39.646Z,8.00
2022-10-18T00:55:09.212Z,7.65
2022-10-18T00:57:36.894Z,7.10
2022-10-18T01:00:09.732Z,6.68
2022-10-18T01:02:38.830Z,7.07
2022-10-18T01:05:06.494Z,7.70
2022-10-18T01:08:05.457Z,8.23
2022-10-18T01:10:53.287Z,8.32
2022-10-18T01:13:52.260Z,7.53
2022-10-18T01:16:27.426Z,7.25
2022-10-18T01:18:58.402Z,7.93
2022-10-18T01:21:45.091Z,8.40
2022-10-18T01:24:33.344Z,7.68
2022-10-18T01:27:13.670Z,7.35
2022-10-18T01:30:22.370Z,8.02
2022-10-18T01:32:52.549Z,7.32
2022-10-18T01:35:25.120Z,8.10
2022-10-18T01:37:56.033Z,8.18
2022-10-18T01:40:24.957Z,7.68
2022-10-18T01:42:54.554Z,8.13
2022-10-18T01:45:24.209Z,8.17
2022-10-18T01:47:52.495Z,7.03
2022-10-18T01:50:30.316Z,7.57
2022-10-18T01:52:57.599Z,7.50
2022-10-18T01:55:41.167Z,9.25
2022-10-18T01:58:46.552Z,7.53
2022-10-18T02:01:28.840Z,7.13
2022-10-18T02:04:04.075Z,7.05
2022-10-18T02:06:38.276Z,7.63
2022-10-18T02:09:18.861Z,8.20
2022-10-18T02:14:16.419Z,7.18
2022-10-18T02:16:51.395Z,7.13
2022-10-18T02:19:33.303Z,7.07
2022-10-18T02:22:01.247Z,7.70
2022-10-18T02:24:37.575Z,7.32
2022-10-18T02:27:04.783Z,7.53
2022-10-18T02:29:32.834Z,6.80
2022-10-18T02:32:16.438Z,7.35
2022-10-18T02:34:46.726Z,7.30
2022-10-18T02:37:15.575Z,7.78
2022-10-18T02:39:51.163Z,8.38
2022-10-18T02:42:17.947Z,8.90
2022-10-18T02:44:47.272Z,7.30
2022-10-18T02:47:17.211Z,6.93
2022-10-18T02:49:46.451Z,6.65
2022-10-18T02:52:14.776Z,7.25
2022-10-18T02:54:41.637Z,7.88
2022-10-18T02:57:08.787Z,7.88
2022-10-18T02:59:35.563Z,7.97
2022-10-18T03:02:02.513Z,7.38
2022-10-18T03:04:29.508Z,7.25
2022-10-18T03:06:56.406Z,7.60
2022-10-18T03:09:23.272Z,7.35
2022-10-18T03:11:50.053Z,7.22
2022-10-18T03:14:18.929Z,7.28
2022-10-18T03:16:45.803Z,6.57
2022-10-18T03:19:12.606Z,7.07
2022-10-18T03:21:42.029Z,7.03
2022-10-18T03:24:08.730Z,7.70
2022-10-18T03:26:35.506Z,8.68
2022-10-18T03:29:02.285Z,8.20
2022-10-18T03:33:57.514Z,7.50
2022-10-18T03:36:27.119Z,8.15
2022-10-18T03:38:56.275Z,7.57
2022-10-18T03:41:27.930Z,7.10
2022-10-18T03:43:54.823Z,6.82
2022-10-18T03:46:21.707Z,7.47
2022-10-18T03:48:48.555Z,7.22
2022-10-18T03:51:15.425Z,6.88
2022-10-18T03:53:44.932Z,7.65
2022-10-18T03:56:11.766Z,7.60
2022-10-18T03:58:38.631Z,7.22
2022-10-18T04:01:08.499Z,7.20
2022-10-18T04:03:35.236Z,6.80
2022-10-18T04:06:03.780Z,6.95
2022-10-18T04:08:30.740Z,7.47
2022-10-18T04:10:57.709Z,7.40
2022-10-18T04:13:31.854Z,6.72
2022-10-18T04:16:01.034Z,6.43
2022-10-18T04:18:28.064Z,7.38
2022-10-18T04:20:54.810Z,6.63
2022-10-18T04:23:21.579Z,5.93
2022-10-18T04:25:48.403Z,7.18
2022-10-18T04:28:15.398Z,6.20
2022-10-18T04:30:46.604Z,7.35
2022-10-18T04:33:13.411Z,6.78
2022-10-18T04:35:40.054Z,6.60
2022-10-18T04:38:06.953Z,7.57
2022-10-18T04:40:33.737Z,7.22
2022-10-18T04:43:00.402Z,7.13
2022-10-18T04:45:27.194Z,7.07
2022-10-18T04:47:54.018Z,6.55
2022-10-18T04:50:20.725Z,6.85
2022-10-18T04:52:47.665Z,6.90
2022-10-18T04:55:14.542Z,7.18
2022-10-18T04:57:41.331Z,7.55
2022-10-18T05:00:08.412Z,7.15
2022-10-18T05:02:35.200Z,7.00
2022-10-18T05:05:01.933Z,7.18
2022-10-18T05:07:28.622Z,6.38
2022-10-18T05:09:55.480Z,6.57
2022-10-18T05:12:22.385Z,7.13
2022-10-18T05:14:52.211Z,6.85
2022-10-18T05:17:18.980Z,6.88
2022-10-18T05:19:45.809Z,6.88
2022-10-18T05:22:12.540Z,7.22
2022-10-18T05:24:41.716Z,7.05
2022-10-18T05:27:10.293Z,6.25
2022-10-18T05:29:37.062Z,7.57
2022-10-18T05:32:05.689Z,7.05
2022-10-18T05:34:33.085Z,6.63
2022-10-18T05:37:00.155Z,6.25
2022-10-18T05:39:26.986Z,7.32
2022-10-18T05:41:53.593Z,6.78
2022-10-18T05:44:22.565Z,6.88
2022-10-18T05:46:51.778Z,6.80
2022-10-18T05:49:18.413Z,7.68
2022-10-18T05:51:45.696Z,6.93
2022-10-18T05:54:12.549Z,7.97
2022-10-18T05:59:10.265Z,7.05
2022-10-18T06:01:38.653Z,7.07
2022-10-18T06:04:06.095Z,7.13
2022-10-18T06:06:33.826Z,7.22
2022-10-18T06:09:00.562Z,7.07
2022-10-18T06:11:27.220Z,7.28
2022-10-18T06:13:53.858Z,6.78
2022-10-18T06:16:22.518Z,6.90
2022-10-18T06:18:54.401Z,7.55
2022-10-18T06:21:22.351Z,6.45
2022-10-18T06:23:54.001Z,6.55
2022-10-18T06:26:21.363Z,7.13
2022-10-18T06:28:48.507Z,7.35
2022-10-18T06:31:15.460Z,6.95
2022-10-18T06:33:42.573Z,7.15
2022-10-18T06:36:22.160Z,6.60
2022-10-18T06:38:49.496Z,6.57
2022-10-18T06:41:19.631Z,7.97
2022-10-18T06:43:50.505Z,7.00
2022-10-18T06:46:17.403Z,6.75
2022-10-18T06:48:44.156Z,8.13
2022-10-18T06:51:11.618Z,6.72
2022-10-18T06:53:44.542Z,7.03
2022-10-18T06:56:25.763Z,7.82
2022-10-18T06:58:52.491Z,7.00
2022-10-18T07:01:19.821Z,6.95
2022-10-18T07:03:49.997Z,6.72
2022-10-18T07:06:19.055Z,6.75
2022-10-18T07:08:46.864Z,7.40
2022-10-18T07:11:23.746Z,7.35
2022-10-18T07:13:50.529Z,7.53
2022-10-18T07:16:18.991Z,8.23
2022-10-18T07:18:50.735Z,7.03
2022-10-18T07:21:22.720Z,6.80
2022-10-18T07:23:50.791Z,7.68
2022-10-18T07:26:43.715Z,7.10
2022-10-18T07:29:12.614Z,8.70
2022-10-18T07:31:41.028Z,8.35
2022-10-18T07:34:10.658Z,7.10
2022-10-18T07:36:37.819Z,7.38
2022-10-18T07:39:07.329Z,8.15
2022-10-18T07:41:37.251Z,8.10
2022-10-18T07:44:04.368Z,8.32
2022-10-18T07:46:31.623Z,7.85
2022-10-18T07:48:59.582Z,7.35
2022-10-18T07:51:32.441Z,8.82
2022-10-18T07:53:59.634Z,7.82
2022-10-18T07:56:26.260Z,7.60
2022-10-18T07:58:55.704Z,7.82
2022-10-18T08:01:23.912Z,8.47
2022-10-18T08:03:51.264Z,8.05
2022-10-18T08:06:20.110Z,7.68
2022-10-18T08:08:47.132Z,8.13
2022-10-18T08:11:16.538Z,7.43
2022-10-18T08:13:44.056Z,6.88
2022-10-18T08:16:14.618Z,7.15
2022-10-18T08:18:42.081Z,7.03
2022-10-18T08:21:10.671Z,7.35
2022-10-18T08:23:37.843Z,7.35
2022-10-18T08:26:09.951Z,7.47
2022-10-18T08:28:39.485Z,7.40
2022-10-18T08:31:08.609Z,7.90
2022-10-18T08:33:36.288Z,7.80
2022-10-18T08:36:06.258Z,8.00
2022-10-18T08:38:38.170Z,7.47
2022-10-18T08:41:45.544Z,7.28
2022-10-18T08:44:31.763Z,7.38
2022-10-18T08:47:17.985Z,6.53
2022-10-18T08:49:51.962Z,6.65
2022-10-18T08:52:30.837Z,7.70
2022-10-18T08:55:04.301Z,6.80
2022-10-18T08:57:34.480Z,7.28
2022-10-18T09:00:25.416Z,6.55
2022-10-18T09:03:13.993Z,6.93
2022-10-18T09:05:50.767Z,6.13
2022-10-18T09:08:32.571Z,6.50
2022-10-18T09:11:18.077Z,5.57
2022-10-18T09:14:02.024Z,5.95
2022-10-18T09:16:55.202Z,6.55
2022-10-18T09:19:55.734Z,6.00
2022-10-18T09:22:57.294Z,6.45
2022-10-18T09:25:44.565Z,5.95
2022-10-18T09:28:37.833Z,6.28
2022-10-18T09:31:22.097Z,6.50
2022-10-18T09:34:06.142Z,6.28
2022-10-18T09:36:37.200Z,6.93
2022-10-18T09:39:12.025Z,5.90
2022-10-18T09:42:03.154Z,5.90
2022-10-18T09:44:45.178Z,5.57
2022-10-18T09:47:18.421Z,6.32
2022-10-18T09:49:55.003Z,5.70
2022-10-18T09:52:55.958Z,5.75
2022-10-18T09:55:28.828Z,5.70
2022-10-18T09:57:59.850Z,5.30
2022-10-18T10:00:34.562Z,4.82
2022-10-18T10:03:02.030Z,5.15
2022-10-18T10:05:28.985Z,5.10
2022-10-18T10:08:00.105Z,5.72
2022-10-18T10:10:28.776Z,6.60
2022-10-18T10:13:26.269Z,6.30
2022-10-18T10:16:03.596Z,4.85
2022-10-18T10:18:34.150Z,4.78
2022-10-18T10:21:05.781Z,4.97
2022-10-18T10:23:39.852Z,5.82
2022-10-18T10:26:32.261Z,3.85
2022-10-18T10:28:59.360Z,3.47
2022-10-18T10:31:33.862Z,3.20
2022-10-18T10:34:13.388Z,3.00
2022-10-18T10:36:59.069Z,3.45
2022-10-18T10:39:26.074Z,3.83
2022-10-18T10:41:59.651Z,3.80
2022-10-18T10:44:32.391Z,3.40
2022-10-18T10:46:59.677Z,3.75
2022-10-18T10:49:43.633Z,3.63
2022-10-18T10:52:29.065Z,3.55
2022-10-18T10:55:23.645Z,3.10
2022-10-18T10:57:51.364Z,2.97
2022-10-18T11:00:41.896Z,3.45
2022-10-18T11:03:31.452Z,3.40
2022-10-18T11:06:01.039Z,3.40
2022-10-18T11:08:33.529Z,3.55
2022-10-18T11:11:23.027Z,3.53
2022-10-18T11:14:13.272Z,4.70
2022-10-18T11:16:51.204Z,5.50
2022-10-18T11:19:33.132Z,5.63
2022-10-18T11:22:04.286Z,4.78
2022-10-18T11:24:31.468Z,5.03
2022-10-18T11:27:19.456Z,5.95
2022-10-18T11:30:02.675Z,5.63
2022-10-18T11:32:45.950Z,6.15
2022-10-18T11:35:23.761Z,6.28
2022-10-18T11:38:19.656Z,6.93
2022-10-18T11:40:52.259Z,6.13
2022-10-18T11:44:01.154Z,7.05
2022-10-18T11:46:57.201Z,5.85
2022-10-18T11:49:33.945Z,5.25
2022-10-18T11:52:19.387Z,6.47
2022-10-18T11:54:58.205Z,6.13
2022-10-18T11:57:57.192Z,5.40
2022-10-18T12:00:47.815Z,5.18
2022-10-18T12:03:25.778Z,5.90
2022-10-18T12:06:00.887Z,6.25
2022-10-18T12:08:33.599Z,5.05
2022-10-18T12:11:08.023Z,6.63
2022-10-18T12:13:51.837Z,5.78
2022-10-18T12:16:49.401Z,5.72
2022-10-18T12:19:26.559Z,6.32
2022-10-18T12:22:02.943Z,6.03
2022-10-18T12:24:32.016Z,6.43
2022-10-18T12:27:01.600Z,6.20
2022-10-18T12:29:44.278Z,6.72
2022-10-18T12:32:21.961Z,6.38
2022-10-18T12:35:00.464Z,6.22
2022-10-18T12:37:57.887Z,5.95
2022-10-18T12:40:44.955Z,6.25
2022-10-18T12:43:36.841Z,5.68
2022-10-18T12:46:13.506Z,7.07
2022-10-18T12:48:45.702Z,6.10
2022-10-18T12:51:22.875Z,6.18
2022-10-18T12:54:08.309Z,6.40
2022-10-18T12:56:38.541Z,7.15
2022-10-18T12:59:14.837Z,5.60
2022-10-18T13:01:50.722Z,5.68
2022-10-18T13:04:38.297Z,7.00
2022-10-18T13:07:05.005Z,6.15
2022-10-18T13:09:37.785Z,6.78
2022-10-18T13:12:10.498Z,6.32
2022-10-18T13:15:24.129Z,6.30
2022-10-18T13:18:02.518Z,6.13
2022-10-18T13:20:46.325Z,5.47
2022-10-18T13:23:27.793Z,6.40
2022-10-18T13:26:04.651Z,5.82
2022-10-18T13:28:42.905Z,5.53
2022-10-18T13:31:12.629Z,6.05
2022-10-18T13:33:42.466Z,5.20
2022-10-18T13:36:23.418Z,5.70
2022-10-18T13:38:55.769Z,4.97
2022-10-18T13:41:28.275Z,4.75
2022-10-18T13:44:22.759Z,4.68
2022-10-18T13:46:49.317Z,3.97
2022-10-18T13:49:32.489Z,4.38
2022-10-18T13:52:08.219Z,4.63
2022-10-18T13:54:56.662Z,4.70
2022-10-18T13:57:51.596Z,3.85
2022-10-18T14:00:35.301Z,3.92
2022-10-18T14:03:31.608Z,4.15
2022-10-18T14:06:03.955Z,3.95
2022-10-18T14:08:52.743Z,3.78
2022-10-18T14:11:19.365Z,3.70
2022-10-18T14:13:51.958Z,4.47
2022-10-18T14:16:43.634Z,4.28
2022-10-18T14:19:16.164Z,4.32
2022-10-18T14:21:51.381Z,4.00
2022-10-18T14:24:24.645Z,3.50
2022-10-18T14:27:17.169Z,3.10
2022-10-18T14:29:44.077Z,3.33
2022-10-18T14:32:21.985Z,3.15
2022-10-18T14:34:48.644Z,3.45
2022-10-18T14:37:34.439Z,3.58
2022-10-18T14:40:02.517Z,3.40
2022-10-18T14:42:29.506Z,3.38
2022-10-18T14:45:00.497Z,2.67
2022-10-18T14:47:30.095Z,3.05
2022-10-18T14:50:00.909Z,2.92
2022-10-18T14:52:35.435Z,3.22
2022-10-18T14:55:03.247Z,2.90
2022-10-18T14:57:33.875Z,3.30
2022-10-18T15:00:08.763Z,2.72
2022-10-18T15:02:39.456Z,3.20
2022-10-18T15:05:25.525Z,3.55
2022-10-18T15:07:53.577Z,3.17
2022-10-18T15:10:28.433Z,2.97
2022-10-18T15:13:16.530Z,3.05
2022-10-18T15:15:44.204Z,3.40
2022-10-18T15:18:22.180Z,3.90
2022-10-18T15:21:07.981Z,3.40
2022-10-18T15:23:36.877Z,3.10
2022-10-18T15:26:11.296Z,4.07
2022-10-18T15:28:50.992Z,4.50
2022-10-18T15:31:37.472Z,3.50
2022-10-18T15:34:21.610Z,3.22
2022-10-18T15:36:50.004Z,3.08
2022-10-18T15:39:37.108Z,3.53
2022-10-18T15:42:04.469Z,4.07
2022-10-18T15:44:46.917Z,5.20
2022-10-18T15:47:13.520Z,4.37
2022-10-18T15:49:46.291Z,4.15
2022-10-18T15:52:32.579Z,3.55
2022-10-18T15:55:22.760Z,3.60
2022-10-18T15:57:49.843Z,4.00
2022-10-18T16:00:20.425Z,3.85
2022-10-18T16:02:47.170Z,3.97
2022-10-18T16:05:17.303Z,3.45
2022-10-18T16:07:44.155Z,4.25
2022-10-18T16:10:17.160Z,3.13
2022-10-18T16:12:43.861Z,3.80
2022-10-18T16:15:10.677Z,3.85
2022-10-18T16:17:37.317Z,3.72
2022-10-18T16:20:04.332Z,4.10
2022-10-18T16:22:33.388Z,3.97
2022-10-18T16:25:02.956Z,3.47
2022-10-18T16:27:32.094Z,4.45
2022-10-18T16:29:59.340Z,4.63
2022-10-18T16:32:26.173Z,5.90
2022-10-18T16:34:55.012Z,4.53
2022-10-18T16:37:24.474Z,4.70
2022-10-18T16:39:51.181Z,5.30
2022-10-18T16:42:18.071Z,5.25
2022-10-18T16:44:45.410Z,4.97
2022-10-18T16:47:12.088Z,5.13
2022-10-18T16:49:39.814Z,5.35
2022-10-18T16:52:09.228Z,4.65
2022-10-18T16:54:36.121Z,4.60
2022-10-18T16:57:03.468Z,5.07
2022-10-18T16:59:31.605Z,4.70
2022-10-18T17:01:58.495Z,4.82
2022-10-18T17:04:25.078Z,5.00
2022-10-18T17:06:54.378Z,4.68
2022-10-18T17:09:21.007Z,5.63
2022-10-18T17:11:47.650Z,6.97
2022-10-18T17:14:14.302Z,5.53
2022-10-18T17:16:43.604Z,5.05
2022-10-18T17:19:13.113Z,5.95
2022-10-18T17:21:39.780Z,5.20
2022-10-18T17:24:08.898Z,5.95
2022-10-18T17:26:35.671Z,6.28
2022-10-18T17:29:06.273Z,4.63
2022-10-18T17:31:33.459Z,5.15
2022-10-18T17:34:02.874Z,4.70
2022-10-18T17:36:31.295Z,6.85
2022-10-18T17:38:58.405Z,4.60
2022-10-18T17:41:25.332Z,4.80
2022-10-18T17:43:52.094Z,5.35
2022-10-18T17:46:22.534Z,6.43
2022-10-18T17:48:49.577Z,6.10
2022-10-18T17:51:17.406Z,6.22
2022-10-18T17:53:44.216Z,6.95
2022-10-18T17:56:11.757Z,7.32
2022-10-18T17:58:38.663Z,6.78
2022-10-18T18:01:12.082Z,6.93
2022-10-18T18:03:40.104Z,7.07
2022-10-18T18:06:22.256Z,6.13
2022-10-18T18:08:49.881Z,6.28
2022-10-18T18:11:17.355Z,6.85
2022-10-18T18:13:44.078Z,5.72
2022-10-18T18:16:17.002Z,6.55
2022-10-18T18:18:44.252Z,6.22
2022-10-18T18:21:11.516Z,5.45
2022-10-18T18:23:39.328Z,5.78
2022-10-18T18:26:08.132Z,5.28
2022-10-18T18:28:38.274Z,6.10
2022-10-18T18:31:09.464Z,7.28
2022-10-18T18:33:37.345Z,5.53
2022-10-18T18:36:05.136Z,5.50
2022-10-18T18:38:32.736Z,5.80
2022-10-18T18:41:24.657Z,5.78
2022-10-18T18:44:11.508Z,5.40
2022-10-18T18:46:38.840Z,5.10
2022-10-18T18:49:07.274Z,6.80
2022-10-18T18:51:37.421Z,5.32
2022-10-18T18:54:04.766Z,5.82
2022-10-18T18:56:31.479Z,5.63
2022-10-18T18:59:00.934Z,5.47
2022-10-18T19:01:30.437Z,5.57
2022-10-18T19:03:58.228Z,5.57
2022-10-18T19:06:30.957Z,6.15
2022-10-18T19:09:02.953Z,7.75
2022-10-18T19:11:32.789Z,8.10
2022-10-18T19:14:00.139Z,7.65
2022-10-18T19:16:28.831Z,8.07
2022-10-18T19:19:01.376Z,7.10
2022-10-18T19:21:33.248Z,7.15
2022-10-18T19:24:00.226Z,7.90
2022-10-18T19:26:32.093Z,9.00
2022-10-18T19:29:08.615Z,8.82
2022-10-18T19:31:35.798Z,8.63
2022-10-18T19:34:08.007Z,8.43
2022-10-18T19:36:35.240Z,9.13
2022-10-18T19:39:03.138Z,8.25
2022-10-18T19:41:29.763Z,8.07
2022-10-18T19:43:57.067Z,7.40
2022-10-18T19:46:23.742Z,6.63
2022-10-18T19:48:50.504Z,6.20
2022-10-18T19:51:20.315Z,6.03
2022-10-18T19:53:50.645Z,5.32
2022-10-18T19:56:21.023Z,5.22
2022-10-18T19:58:48.804Z,5.07
2022-10-18T20:01:19.270Z,4.35
2022-10-18T20:03:46.978Z,4.78
2022-10-18T20:06:14.039Z,5.80
2022-10-18T20:11:14.114Z,6.03
2022-10-18T20:13:40.824Z,7.35
2022-10-18T20:16:09.176Z,5.72
2022-10-18T20:18:36.055Z,6.05
2022-10-18T20:21:07.717Z,6.93
2022-10-18T20:23:39.425Z,7.28
2022-10-18T20:26:08.864Z,6.90
2022-10-18T20:28:37.729Z,7.60
2022-10-18T20:31:06.368Z,7.30
2022-10-18T20:33:33.937Z,7.43
2022-10-18T20:36:06.580Z,6.70
2022-10-18T20:38:35.092Z,7.95
2022-10-18T20:41:07.658Z,6.90
2022-10-18T20:43:35.163Z,7.32
2022-10-18T20:46:02.762Z,5.50
2022-10-18T20:48:31.159Z,6.93
2022-10-18T20:51:02.236Z,7.43
2022-10-18T20:53:30.871Z,6.80
2022-10-18T20:56:27.186Z,6.75
2022-10-18T20:58:56.551Z,6.88
2022-10-18T21:01:28.806Z,6.38
2022-10-18T21:03:58.005Z,6.63
2022-10-18T21:06:26.007Z,6.95
2022-10-18T21:09:13.311Z,6.30
2022-10-18T21:11:42.671Z,4.88
2022-10-18T21:14:18.590Z,5.53
2022-10-18T21:16:45.906Z,6.18
2022-10-18T21:19:26.848Z,5.18
2022-10-18T21:21:57.406Z,5.82
2022-10-18T21:24:26.529Z,5.85
2022-10-18T21:26:55.966Z,5.63
2022-10-18T21:29:24.549Z,6.53
2022-10-18T21:31:55.359Z,5.30
2022-10-18T21:34:22.297Z,5.93
2022-10-18T21:36:49.384Z,5.70
2022-10-18T21:41:51.196Z,5.03
2022-10-18T21:44:18.466Z,6.25
2022-10-18T21:46:46.563Z,6.28
2022-10-18T21:49:14.430Z,5.78
2022-10-18T21:51:42.113Z,5.65
2022-10-18T21:54:12.594Z,5.68
2022-10-18T21:59:06.001Z,6.10
2022-10-18T22:01:35.217Z,5.97
2022-10-18T22:04:05.577Z,7.35
2022-10-18T22:09:04.999Z,7.13
2022-10-18T22:11:42.281Z,8.50
2022-10-18T22:14:09.097Z,9.60
2022-10-18T22:16:35.935Z,8.80
2022-10-18T22:19:03.929Z,7.60
2022-10-18T22:21:30.912Z,9.63
2022-10-18T22:23:58.727Z,10.45
2022-10-18T22:26:29.548Z,9.98
2022-10-18T22:28:58.817Z,9.88
2022-10-18T22:31:28.116Z,11.18
2022-10-18T22:33:57.263Z,9.18
2022-10-18T22:36:24.673Z,7.22
2022-10-18T22:38:51.338Z,9.93
2022-10-18T22:41:18.850Z,9.85
2022-10-18T22:43:49.997Z,8.85
2022-10-18T22:46:17.557Z,6.90
2022-10-18T22:48:44.540Z,7.78
2022-10-18T22:51:12.053Z,7.43
2022-10-18T22:53:40.020Z,7.63
2022-10-18T22:56:09.927Z,9.27
2022-10-18T22:58:36.504Z,11.02
2022-10-18T23:01:13.473Z,9.57
2022-10-18T23:03:40.305Z,9.10
2022-10-18T23:06:19.979Z,11.10
2022-10-18T23:08:46.837Z,8.63
2022-10-18T23:11:13.749Z,8.05
2022-10-18T23:13:40.389Z,7.47
2022-10-18T23:16:07.236Z,7.18
2022-10-18T23:18:33.957Z,8.77
2022-10-18T23:21:05.709Z,9.13
2022-10-18T23:23:36.683Z,7.88
2022-10-18T23:26:05.358Z,6.90
2022-10-18T23:28:36.550Z,8.98
2022-10-18T23:31:12.005Z,10.32
2022-10-18T23:33:39.301Z,8.55
2022-10-18T23:36:08.084Z,8.20
2022-10-18T23:38:35.913Z,7.82
2022-10-18T23:41:02.903Z,8.52
2022-10-18T23:43:29.475Z,8.43
2022-10-18T23:45:56.218Z,7.90
2022-10-18T23:48:22.829Z,8.40
2022-10-18T23:50:49.525Z,6.35
2022-10-18T23:53:16.354Z,7.57
2022-10-18T23:55:53.006Z,6.20
2022-10-18T23:58:20.026Z,11.00
